createdAt,value
2019-02-26T00:00:12.791Z,1.80
2019-02-26T00:02:46.509Z,1.80
2019-02-26T00:05:21.376Z,1.80
2019-02-26T00:07:55.090Z,1.80
2019-02-26T00:10:26.812Z,1.70
2019-02-26T00:12:58.003Z,1.80
2019-02-26T00:15:33.355Z,1.80
2019-02-26T00:18:02.516Z,1.80
2019-02-26T00:20:34.372Z,1.80
2019-02-26T00:23:05.765Z,1.80
2019-02-26T00:25:35.837Z,1.80
2019-02-26T00:28:05.918Z,1.80
2019-02-26T00:30:37.865Z,1.60
2019-02-26T00:33:10.597Z,1.60
2019-02-26T00:35:41.628Z,1.60
2019-02-26T00:38:18.171Z,1.50
2019-02-26T00:40:47.029Z,1.50
2019-02-26T00:43:20.939Z,1.50
2019-02-26T00:45:51.068Z,1.40
2019-02-26T00:48:21.761Z,1.40
2019-02-26T00:50:56.532Z,1.40
2019-02-26T00:53:25.986Z,1.40
2019-02-26T00:55:59.381Z,1.50
2019-02-26T00:58:32.107Z,1.50
2019-02-26T01:01:02.933Z,1.50
2019-02-26T01:03:33.043Z,1.50
2019-02-26T01:06:05.910Z,1.50
2019-02-26T01:08:38.396Z,1.30
2019-02-26T01:11:16.256Z,1.30
2019-02-26T01:13:46.268Z,1.40
2019-02-26T01:16:17.963Z,1.40
2019-02-26T01:18:54.455Z,1.30
2019-02-26T01:21:22.172Z,1.30
2019-02-26T01:23:56.700Z,1.30
2019-02-26T01:26:27.345Z,1.20
2019-02-26T01:28:58.495Z,1.20
2019-02-26T01:31:29.286Z,1.10
2019-02-26T01:34:00.541Z,1.20
2019-02-26T01:36:38.234Z,1.30
2019-02-26T01:39:12.001Z,1.40
2019-02-26T01:41:45.453Z,1.40
2019-02-26T01:44:14.685Z,1.50
2019-02-26T01:46:47.744Z,1.40
2019-02-26T01:49:21.478Z,1.40
2019-02-26T01:51:51.850Z,1.40
2019-02-26T01:54:30.518Z,1.50
2019-02-26T01:57:01.147Z,1.70
2019-02-26T01:59:34.550Z,1.60
2019-02-26T02:02:05.222Z,1.60
2019-02-26T02:04:37.124Z,1.60
2019-02-26T02:07:09.542Z,1.60
2019-02-26T02:09:40.073Z,1.60
2019-02-26T02:12:11.189Z,1.50
2019-02-26T02:14:41.373Z,1.40
2019-02-26T02:17:14.497Z,1.40
2019-02-26T02:19:46.159Z,1.20
2019-02-26T02:22:24.643Z,1.20
2019-02-26T02:24:55.665Z,1.20
2019-02-26T02:27:32.993Z,1.30
2019-02-26T02:30:02.963Z,1.30
2019-02-26T02:32:34.508Z,1.30
2019-02-26T02:35:06.828Z,1.30
2019-02-26T02:37:38.517Z,1.30
2019-02-26T02:40:09.394Z,1.30
2019-02-26T02:42:43.130Z,1.30
2019-02-26T02:45:19.641Z,1.20
2019-02-26T02:47:48.229Z,1.20
2019-02-26T02:50:21.302Z,1.30
2019-02-26T02:52:53.359Z,1.20
2019-02-26T02:55:27.099Z,1.30
2019-02-26T02:58:00.508Z,1.30
2019-02-26T03:00:33.915Z,1.40
2019-02-26T03:03:02.438Z,1.30
2019-02-26T03:05:35.159Z,1.30
2019-02-26T03:08:05.291Z,1.20
2019-02-26T03:10:40.147Z,1.20
2019-02-26T03:13:09.771Z,1.10
2019-02-26T03:15:41.267Z,1.10
2019-02-26T03:18:14.090Z,1.20
2019-02-26T03:20:45.497Z,1.20
2019-02-26T03:23:20.003Z,1.20
2019-02-26T03:25:52.921Z,1.20
2019-02-26T03:28:22.591Z,1.30
2019-02-26T03:30:52.590Z,1.20
2019-02-26T03:33:22.674Z,1.20
2019-02-26T03:35:52.749Z,1.20
2019-02-26T03:38:26.865Z,1.20
2019-02-26T03:40:58.924Z,1.30
2019-02-26T03:43:30.892Z,1.30
2019-02-26T03:46:04.525Z,1.20
2019-02-26T03:48:33.880Z,1.20
2019-02-26T03:51:17.218Z,1.20
2019-02-26T03:53:45.625Z,1.20
2019-02-26T03:56:20.513Z,1.20
2019-02-26T03:58:54.390Z,1.20
2019-02-26T04:01:22.148Z,1.20
2019-02-26T04:03:54.701Z,1.20
2019-02-26T04:06:23.988Z,1.10
2019-02-26T04:08:55.975Z,1.10
2019-02-26T04:11:39.336Z,1.10
2019-02-26T04:14:12.572Z,1.00
2019-02-26T04:16:43.597Z,1.00
2019-02-26T04:19:15.097Z,1.00
2019-02-26T04:22:23.169Z,1.00
2019-02-26T04:24:56.003Z,1.00
2019-02-26T04:28:15.067Z,1.00
2019-02-26T04:31:16.085Z,1.00
2019-02-26T04:34:09.293Z,1.10
2019-02-26T04:37:12.911Z,1.20
2019-02-26T04:40:05.365Z,1.20
2019-02-26T04:43:18.242Z,1.20
2019-02-26T04:46:20.876Z,1.20
2019-02-26T04:48:51.109Z,1.20
2019-02-26T04:51:21.303Z,1.30
2019-02-26T04:53:53.697Z,1.30
2019-02-26T04:56:23.072Z,1.30
2019-02-26T04:58:54.205Z,1.20
2019-02-26T05:01:24.271Z,1.30
2019-02-26T05:03:54.358Z,1.30
2019-02-26T05:06:24.376Z,1.30
2019-02-26T05:08:56.886Z,1.30
2019-02-26T05:11:31.364Z,1.40
2019-02-26T05:13:59.247Z,1.30
2019-02-26T05:16:31.900Z,1.40
2019-02-26T05:19:06.303Z,1.40
2019-02-26T05:21:37.946Z,1.50
2019-02-26T05:24:13.069Z,1.50
2019-02-26T05:26:43.788Z,1.50
2019-02-26T05:29:14.061Z,1.50
2019-02-26T05:31:45.089Z,1.50
2019-02-26T05:34:18.090Z,1.60
2019-02-26T05:36:51.592Z,1.60
2019-02-26T05:39:23.639Z,1.60
2019-02-26T05:41:57.989Z,1.60
2019-02-26T05:44:26.780Z,1.50
2019-02-26T05:46:58.702Z,1.50
2019-02-26T05:49:33.850Z,1.60
2019-02-26T05:52:04.213Z,1.50
2019-02-26T05:54:35.350Z,1.60
2019-02-26T05:57:06.740Z,1.60
2019-02-26T05:59:38.308Z,1.50
2019-02-26T06:02:10.602Z,1.60
2019-02-26T06:04:40.940Z,1.70
2019-02-26T06:07:21.750Z,1.70
2019-02-26T06:09:48.352Z,1.60
2019-02-26T06:12:20.956Z,1.80
2019-02-26T06:14:54.029Z,2.00
2019-02-26T06:17:24.022Z,2.00
2019-02-26T06:19:57.230Z,2.00
2019-02-26T06:22:29.700Z,2.10
2019-02-26T06:25:03.159Z,2.20
2019-02-26T06:27:32.641Z,2.30
2019-02-26T06:30:05.892Z,2.20
2019-02-26T06:32:37.916Z,2.40
2019-02-26T06:35:11.023Z,2.60
2019-02-26T06:37:40.284Z,3.00
2019-02-26T06:40:13.280Z,3.30
2019-02-26T06:42:46.873Z,3.90
2019-02-26T06:45:20.720Z,5.10
2019-02-26T06:47:53.565Z,6.50
2019-02-26T06:50:23.242Z,7.40
2019-02-26T06:52:56.497Z,7.50
2019-02-26T06:55:28.181Z,8.80
2019-02-26T06:58:22.595Z,11.20
2019-02-26T07:00:57.242Z,13.40
2019-02-26T07:03:28.801Z,15.30
2019-02-26T07:06:01.719Z,16.00
2019-02-26T07:08:31.088Z,16.50
2019-02-26T07:11:01.271Z,17.20
2019-02-26T07:13:36.250Z,17.70
2019-02-26T07:16:06.227Z,17.60
2019-02-26T07:18:39.289Z,17.30
2019-02-26T07:21:10.677Z,17.60
2019-02-26T07:23:42.721Z,18.30
2019-02-26T07:26:13.624Z,19.40
2019-02-26T07:28:46.357Z,20.20
2019-02-26T07:31:16.213Z,20.10
2019-02-26T07:33:46.293Z,19.00
2019-02-26T07:36:18.340Z,18.10
2019-02-26T07:38:54.761Z,17.60
2019-02-26T07:41:27.842Z,17.50
2019-02-26T07:44:00.060Z,17.80
2019-02-26T07:46:33.711Z,17.60
2019-02-26T07:49:04.771Z,17.50
2019-02-26T07:51:38.596Z,18.40
2019-02-26T07:54:08.527Z,19.40
2019-02-26T07:56:38.613Z,21.10
2019-02-26T07:59:10.070Z,21.50
2019-02-26T08:01:42.277Z,21.60
2019-02-26T08:04:13.523Z,21.90
2019-02-26T08:06:48.815Z,22.30
2019-02-26T08:09:23.126Z,23.80
2019-02-26T08:11:52.510Z,25.70
2019-02-26T08:14:23.378Z,27.50
2019-02-26T08:16:56.133Z,28.60
2019-02-26T08:19:29.783Z,29.00
2019-02-26T08:21:59.733Z,29.50
2019-02-26T08:24:29.875Z,30.40
2019-02-26T08:27:01.434Z,30.80
2019-02-26T08:29:33.657Z,31.50
2019-02-26T08:32:03.568Z,31.50
2019-02-26T08:34:33.621Z,31.80
2019-02-26T08:37:04.828Z,30.00
2019-02-26T08:39:37.898Z,29.60
2019-02-26T08:42:08.753Z,30.70
2019-02-26T08:44:38.940Z,29.60
2019-02-26T08:47:11.506Z,29.50
2019-02-26T08:49:43.465Z,31.00
2019-02-26T08:52:17.509Z,31.30
2019-02-26T08:54:47.052Z,30.90
2019-02-26T08:57:17.146Z,29.80
2019-02-26T08:59:49.215Z,29.60
2019-02-26T09:02:19.104Z,30.60
2019-02-26T09:04:49.207Z,30.70
2019-02-26T09:07:21.309Z,30.60
2019-02-26T09:09:54.330Z,31.40
2019-02-26T09:12:24.617Z,32.50
2019-02-26T09:14:54.552Z,31.70
2019-02-26T09:17:26.894Z,32.20
2019-02-26T09:20:08.372Z,32.90
2019-02-26T09:22:28.495Z,33.10
2019-02-26T09:24:59.925Z,32.60
2019-02-26T09:27:32.115Z,33.00
2019-02-26T09:30:03.445Z,33.10
2019-02-26T09:32:35.022Z,33.10
2019-02-26T09:35:05.885Z,33.40
2019-02-26T09:37:35.967Z,33.30
2019-02-26T09:40:06.998Z,33.70
2019-02-26T09:42:36.989Z,33.60
2019-02-26T09:45:09.294Z,32.20
2019-02-26T09:47:39.284Z,32.40
2019-02-26T09:50:12.488Z,32.70
2019-02-26T09:52:42.018Z,32.80
2019-02-26T09:55:15.841Z,32.40
2019-02-26T09:57:46.277Z,31.90
2019-02-26T10:00:19.529Z,31.60
2019-02-26T10:02:49.562Z,31.90
2019-02-26T10:05:20.713Z,32.40
2019-02-26T10:07:52.302Z,32.30
2019-02-26T10:10:22.546Z,32.60
2019-02-26T10:12:54.327Z,33.10
2019-02-26T10:15:24.438Z,33.40
2019-02-26T10:17:56.204Z,33.20
2019-02-26T10:20:29.488Z,32.90
2019-02-26T10:23:00.776Z,33.10
2019-02-26T10:25:32.181Z,33.20
2019-02-26T10:28:05.767Z,33.10
2019-02-26T10:30:35.914Z,32.30
2019-02-26T10:33:07.627Z,32.40
2019-02-26T10:35:39.606Z,32.60
2019-02-26T10:38:11.506Z,32.90
2019-02-26T10:40:52.270Z,32.40
2019-02-26T10:43:13.157Z,32.10
2019-02-26T10:45:44.773Z,32.40
2019-02-26T10:48:16.848Z,31.20
2019-02-26T10:50:49.206Z,31.70
2019-02-26T10:53:20.376Z,31.50
2019-02-26T10:55:50.587Z,31.40
2019-02-26T10:58:20.650Z,30.60
2019-02-26T11:00:55.612Z,31.30
2019-02-26T11:03:24.911Z,31.60
2019-02-26T11:05:54.972Z,31.80
2019-02-26T11:08:28.960Z,30.90
2019-02-26T11:10:56.754Z,31.10
2019-02-26T11:13:29.808Z,30.30
2019-02-26T11:16:02.913Z,30.20
2019-02-26T11:18:31.613Z,29.80
2019-02-26T11:21:01.856Z,28.50
2019-02-26T11:23:34.026Z,26.30
2019-02-26T11:26:04.567Z,23.90
2019-02-26T11:28:37.852Z,22.00
2019-02-26T11:31:08.987Z,21.00
2019-02-26T11:33:39.159Z,20.30
2019-02-26T11:36:11.124Z,19.80
2019-02-26T11:38:47.080Z,19.30
2019-02-26T11:41:15.891Z,19.00
2019-02-26T11:43:45.987Z,18.70
2019-02-26T11:46:16.011Z,18.40
2019-02-26T11:48:47.589Z,18.00
2019-02-26T11:51:20.865Z,17.90
2019-02-26T11:53:50.885Z,18.20
2019-02-26T11:56:23.163Z,18.40
2019-02-26T11:58:52.737Z,18.50
2019-02-26T12:01:22.817Z,18.70
2019-02-26T12:03:56.228Z,18.80
2019-02-26T12:06:24.687Z,18.70
2019-02-26T12:08:54.839Z,18.40
2019-02-26T12:11:27.485Z,18.40
2019-02-26T12:13:57.565Z,18.50
2019-02-26T12:16:29.356Z,18.30
2019-02-26T12:19:04.067Z,17.70
2019-02-26T12:21:34.576Z,17.70
2019-02-26T12:24:08.907Z,17.70
2019-02-26T12:26:37.039Z,17.50
2019-02-26T12:29:08.731Z,17.40
2019-02-26T12:31:39.821Z,17.40
2019-02-26T12:34:11.826Z,17.40
2019-02-26T12:36:43.085Z,16.90
2019-02-26T12:39:16.023Z,17.10
2019-02-26T12:41:45.889Z,17.40
2019-02-26T12:44:20.845Z,17.70
2019-02-26T12:46:51.596Z,17.90
2019-02-26T12:49:25.767Z,17.80
2019-02-26T12:51:59.924Z,17.60
2019-02-26T12:54:33.666Z,18.00
2019-02-26T12:57:04.230Z,18.30
2019-02-26T12:59:38.088Z,18.10
2019-02-26T13:02:13.950Z,17.70
2019-02-26T13:04:44.325Z,17.80
2019-02-26T13:07:14.540Z,18.00
2019-02-26T13:09:51.163Z,17.70
2019-02-26T13:12:23.281Z,17.50
2019-02-26T13:15:02.244Z,17.70
2019-02-26T13:17:29.463Z,17.90
2019-02-26T13:20:01.912Z,17.60
2019-02-26T13:22:32.295Z,17.70
2019-02-26T13:25:03.569Z,17.70
2019-02-26T13:27:35.230Z,17.70
2019-02-26T13:30:07.342Z,17.80
2019-02-26T13:32:55.120Z,17.50
2019-02-26T13:35:09.420Z,17.70
2019-02-26T13:37:42.040Z,17.80
2019-02-26T13:40:13.673Z,17.80
2019-02-26T13:42:50.037Z,17.80
2019-02-26T13:45:23.470Z,17.50
2019-02-26T13:48:00.992Z,17.50
2019-02-26T13:50:28.186Z,17.30
2019-02-26T13:52:58.245Z,17.40
2019-02-26T13:55:30.770Z,17.30
2019-02-26T13:58:00.052Z,17.30
2019-02-26T14:00:30.204Z,17.20
2019-02-26T14:03:00.222Z,16.90
2019-02-26T14:05:37.845Z,16.70
2019-02-26T14:08:02.802Z,16.60
2019-02-26T14:10:32.887Z,16.50
2019-02-26T14:13:03.857Z,16.50
2019-02-26T14:15:34.131Z,16.50
2019-02-26T14:18:04.509Z,16.60
2019-02-26T14:20:34.601Z,16.30
2019-02-26T14:23:04.695Z,16.50
2019-02-26T14:25:34.706Z,16.40
2019-02-26T14:28:05.943Z,16.40
2019-02-26T14:30:37.050Z,16.30
2019-02-26T14:33:07.191Z,16.20
2019-02-26T14:35:37.281Z,15.70
2019-02-26T14:38:07.685Z,15.60
2019-02-26T14:40:37.792Z,15.50
2019-02-26T14:43:07.969Z,15.30
2019-02-26T14:45:41.160Z,15.10
2019-02-26T14:48:11.533Z,15.00
2019-02-26T14:50:41.719Z,14.80
2019-02-26T14:53:11.858Z,14.90
2019-02-26T14:55:41.987Z,14.90
2019-02-26T14:58:12.114Z,14.80
2019-02-26T15:00:42.677Z,14.70
2019-02-26T15:03:12.752Z,14.80
2019-02-26T15:05:42.949Z,14.70
2019-02-26T15:08:13.017Z,14.60
2019-02-26T15:10:43.226Z,14.50
2019-02-26T15:13:13.312Z,14.40
2019-02-26T15:15:43.403Z,14.30
2019-02-26T15:18:13.577Z,14.10
2019-02-26T15:20:43.667Z,14.00
2019-02-26T15:23:13.938Z,13.80
2019-02-26T15:25:44.043Z,13.60
2019-02-26T15:28:14.136Z,13.40
2019-02-26T15:30:44.326Z,13.20
2019-02-26T15:33:14.611Z,13.00
2019-02-26T15:35:46.914Z,12.80
2019-02-26T15:38:16.506Z,12.70
2019-02-26T15:40:46.641Z,12.60
2019-02-26T15:43:16.845Z,12.40
2019-02-26T15:45:51.938Z,12.30
2019-02-26T15:48:18.807Z,12.20
2019-02-26T15:50:52.038Z,12.00
2019-02-26T15:53:23.834Z,11.80
2019-02-26T15:55:54.013Z,11.70
2019-02-26T15:58:24.206Z,11.50
2019-02-26T16:00:54.328Z,11.30
2019-02-26T16:03:24.441Z,11.20
2019-02-26T16:05:56.510Z,11.00
2019-02-26T16:08:34.430Z,10.90
2019-02-26T16:10:58.494Z,10.90
2019-02-26T16:13:31.325Z,10.80
2019-02-26T16:16:01.707Z,10.80
2019-02-26T16:18:31.892Z,10.80
2019-02-26T16:21:02.135Z,10.70
2019-02-26T16:23:32.293Z,10.60
2019-02-26T16:26:02.408Z,10.40
2019-02-26T16:28:32.570Z,10.40
2019-02-26T16:31:04.522Z,10.10
2019-02-26T16:33:34.551Z,9.90
2019-02-26T16:36:04.727Z,9.80
2019-02-26T16:38:35.246Z,9.80
2019-02-26T16:41:05.612Z,9.70
2019-02-26T16:43:35.840Z,9.60
2019-02-26T16:46:08.322Z,9.40
2019-02-26T16:48:37.880Z,9.40
2019-02-26T16:51:09.374Z,9.30
2019-02-26T16:53:39.532Z,9.20
2019-02-26T16:56:09.816Z,9.10
2019-02-26T16:58:39.945Z,9.10
2019-02-26T17:01:11.593Z,9.00
2019-02-26T17:03:43.560Z,9.00
2019-02-26T17:06:13.810Z,9.00
2019-02-26T17:08:44.678Z,8.90
2019-02-26T17:11:15.818Z,8.80
2019-02-26T17:13:51.473Z,8.80
2019-02-26T17:16:23.326Z,8.80
2019-02-26T17:18:52.800Z,8.80
2019-02-26T17:21:25.835Z,8.90
2019-02-26T17:23:56.046Z,9.00
2019-02-26T17:26:26.293Z,9.10
2019-02-26T17:28:56.470Z,9.10
2019-02-26T17:31:28.706Z,9.10
2019-02-26T17:33:58.649Z,9.00
2019-02-26T17:36:35.142Z,8.90
2019-02-26T17:39:00.855Z,8.90
2019-02-26T17:41:31.116Z,9.00
2019-02-26T17:44:04.434Z,9.00
2019-02-26T17:46:34.476Z,9.00
2019-02-26T17:49:07.151Z,9.10
2019-02-26T17:51:38.623Z,9.30
2019-02-26T17:54:08.770Z,9.30
2019-02-26T17:56:39.090Z,9.30
2019-02-26T17:59:12.309Z,9.20
2019-02-26T18:01:46.080Z,9.00
2019-02-26T18:04:16.251Z,8.90
2019-02-26T18:06:46.514Z,8.70
2019-02-26T18:09:18.399Z,8.70
2019-02-26T18:11:48.550Z,8.70
2019-02-26T18:14:22.165Z,8.80
2019-02-26T18:16:52.510Z,8.90
2019-02-26T18:19:24.466Z,8.90
2019-02-26T18:21:54.992Z,8.90
2019-02-26T18:24:26.494Z,8.80
2019-02-26T18:26:56.744Z,8.80
2019-02-26T18:29:27.399Z,8.70
2019-02-26T18:31:57.642Z,8.70
2019-02-26T18:34:30.469Z,8.70
2019-02-26T18:37:00.959Z,8.90
2019-02-26T18:39:32.490Z,8.90
2019-02-26T18:42:02.776Z,9.00
2019-02-26T18:44:33.668Z,8.90
2019-02-26T18:47:07.100Z,8.90
2019-02-26T18:49:37.132Z,8.90
2019-02-26T18:52:09.119Z,8.90
2019-02-26T18:54:39.883Z,8.80
2019-02-26T18:57:13.726Z,8.70
2019-02-26T18:59:43.749Z,8.70
2019-02-26T19:02:17.459Z,8.60
2019-02-26T19:04:49.203Z,8.60
2019-02-26T19:07:19.706Z,8.50
2019-02-26T19:09:50.129Z,8.40
2019-02-26T19:12:21.219Z,8.40
2019-02-26T19:14:52.460Z,8.40
2019-02-26T19:17:26.600Z,8.40
2019-02-26T19:19:55.485Z,8.50
2019-02-26T19:22:27.215Z,8.60
2019-02-26T19:24:58.303Z,8.60
2019-02-26T19:27:28.729Z,8.60
2019-02-26T19:30:04.174Z,8.60
2019-02-26T19:32:33.815Z,8.60
2019-02-26T19:35:12.045Z,8.70
2019-02-26T19:37:36.624Z,8.60
2019-02-26T19:40:12.506Z,8.70
2019-02-26T19:42:42.955Z,8.70
2019-02-26T19:45:13.578Z,8.60
2019-02-26T19:47:43.958Z,8.60
2019-02-26T19:50:14.809Z,8.60
2019-02-26T19:52:46.642Z,8.60
2019-02-26T19:55:21.714Z,8.70
2019-02-26T19:57:54.703Z,8.70
2019-02-26T20:00:25.199Z,8.70
2019-02-26T20:02:56.964Z,8.70
2019-02-26T20:05:28.277Z,8.70
2019-02-26T20:07:59.056Z,8.80
2019-02-26T20:10:29.867Z,8.90
2019-02-26T20:13:01.362Z,9.00
2019-02-26T20:15:32.549Z,9.00
2019-02-26T20:18:03.106Z,9.00
2019-02-26T20:20:40.746Z,8.90
2019-02-26T20:23:06.679Z,8.90
2019-02-26T20:25:37.278Z,8.90
2019-02-26T20:28:08.140Z,9.00
2019-02-26T20:30:41.279Z,8.90
2019-02-26T20:33:13.403Z,8.80
2019-02-26T20:35:45.305Z,8.80
2019-02-26T20:38:16.244Z,8.90
2019-02-26T20:40:48.851Z,8.90
2019-02-26T20:43:18.657Z,8.80
2019-02-26T20:45:51.824Z,8.80
2019-02-26T20:48:22.099Z,8.80
2019-02-26T20:51:00.008Z,8.80
2019-02-26T20:53:32.534Z,8.60
2019-02-26T20:56:05.870Z,8.50
2019-02-26T20:58:36.467Z,8.40
2019-02-26T21:01:09.764Z,8.40
2019-02-26T21:03:44.512Z,8.40
2019-02-26T21:06:17.967Z,8.40
2019-02-26T21:08:50.009Z,8.40
2019-02-26T21:11:23.195Z,8.30
2019-02-26T21:13:53.500Z,8.40
2019-02-26T21:16:25.967Z,8.50
2019-02-26T21:18:56.922Z,8.60
2019-02-26T21:21:35.830Z,8.60
2019-02-26T21:24:06.377Z,8.60
2019-02-26T21:26:36.637Z,8.40
2019-02-26T21:29:06.895Z,8.20
2019-02-26T21:31:37.510Z,8.10
2019-02-26T21:34:07.735Z,8.00
2019-02-26T21:36:37.923Z,7.90
2019-02-26T21:39:10.917Z,7.90
2019-02-26T21:41:40.835Z,8.00
2019-02-26T21:44:15.863Z,7.90
2019-02-26T21:46:45.829Z,7.90
2019-02-26T21:49:16.051Z,7.80
2019-02-26T21:51:46.334Z,7.80
2019-02-26T21:54:16.593Z,7.80
2019-02-26T21:56:48.740Z,7.90
2019-02-26T21:59:18.570Z,8.00
2019-02-26T22:01:50.375Z,8.10
2019-02-26T22:04:20.608Z,8.10
2019-02-26T22:06:50.826Z,8.10
2019-02-26T22:09:24.085Z,8.20
2019-02-26T22:11:54.249Z,8.10
2019-02-26T22:14:25.928Z,8.00
2019-02-26T22:16:57.114Z,7.90
2019-02-26T22:19:27.470Z,7.90
2019-02-26T22:21:58.634Z,7.90
2019-02-26T22:24:28.654Z,8.00
2019-02-26T22:27:00.296Z,8.10
2019-02-26T22:29:31.592Z,8.10
2019-02-26T22:32:02.821Z,8.10
2019-02-26T22:34:35.864Z,8.10
2019-02-26T22:37:07.269Z,8.10
2019-02-26T22:39:37.773Z,8.00
2019-02-26T22:42:08.580Z,7.80
2019-02-26T22:44:40.394Z,7.70
2019-02-26T22:47:13.633Z,7.70
2019-02-26T22:49:43.762Z,7.80
2019-02-26T22:52:15.266Z,7.90
2019-02-26T22:54:48.158Z,7.90
2019-02-26T22:57:18.226Z,7.90
2019-02-26T22:59:50.440Z,7.70
2019-02-26T23:02:21.765Z,7.70
2019-02-26T23:04:54.302Z,7.70
2019-02-26T23:07:26.096Z,7.70
2019-02-26T23:09:59.379Z,7.70
2019-02-26T23:12:29.657Z,7.80
2019-02-26T23:15:03.020Z,7.80
2019-02-26T23:17:33.476Z,7.80
2019-02-26T23:20:03.497Z,7.80
2019-02-26T23:22:34.162Z,7.70
2019-02-26T23:25:11.372Z,7.60
2019-02-26T23:27:41.360Z,7.40
2019-02-26T23:30:12.277Z,7.30
2019-02-26T23:32:43.352Z,7.10
2019-02-26T23:35:14.705Z,7.20
2019-02-26T23:37:44.835Z,7.10
2019-02-26T23:40:17.744Z,7.20
2019-02-26T23:42:48.831Z,7.30
2019-02-26T23:45:23.929Z,7.30
2019-02-26T23:47:51.775Z,7.30
2019-02-26T23:50:22.589Z,7.20
2019-02-26T23:52:54.477Z,7.20
2019-02-26T23:55:25.373Z,7.20
2019-02-26T23:57:59.445Z,7.30
